Time;durP1;ratioP1;P1;durP2;ratioP2;P2;SDS_P1;SDS_P2;PMS_P1;PMS_P2;Temp;Humidity;BMP_temperature;BMP_pressure;BME280_temperature;BME280_humidity;BME280_pressure;Samples;Min_cycle;Max_cycle;Signal;HPM_P1;HPM_P2
2022/01/07 00:00:30;;;;;;;6.37;3.80;;;4.00;99.90;;;;;;5056542;28;20196;-82
2022/01/07 00:02:57;;;;;;;7.57;3.27;;;3.90;99.90;;;;;;5073323;28;20221;-81
2022/01/07 00:05:24;;;;;;;4.57;3.10;;;3.80;99.90;;;;;;5055457;28;20212;-80
2022/01/07 00:07:50;;;;;;;7.43;3.23;;;3.80;99.90;;;;;;5071816;28;20202;-80
2022/01/07 00:10:18;;;;;;;6.00;3.40;;;3.90;99.90;;;;;;5055179;28;20200;-79
2022/01/07 00:12:44;;;;;;;9.40;3.70;;;4.00;99.90;;;;;;5071799;28;20200;-81
2022/01/07 00:15:11;;;;;;;7.50;3.07;;;3.90;99.90;;;;;;5038456;28;20208;-79
2022/01/07 00:17:37;;;;;;;4.33;3.10;;;4.00;99.90;;;;;;5071832;28;20249;-82
2022/01/07 00:20:09;;;;;;;4.80;2.93;;;4.10;99.90;;;;;;5073175;28;20306;-80
2022/01/07 00:22:35;;;;;;;6.40;3.67;;;4.20;99.90;;;;;;5054308;28;20196;-79
2022/01/07 00:25:02;;;;;;;6.37;3.63;;;4.20;99.90;;;;;;5055326;28;20644;-82
2022/01/07 00:27:28;;;;;;;6.30;3.40;;;4.20;99.90;;;;;;5055170;28;20200;-81
2022/01/07 00:29:56;;;;;;;10.23;2.87;;;4.10;99.90;;;;;;5054989;28;20295;-82
2022/01/07 00:32:22;;;;;;;11.83;3.50;;;3.90;99.90;;;;;;5072281;28;20184;-79
2022/01/07 00:34:47;;;;;;;10.00;3.60;;;3.80;99.90;;;;;;5072232;28;20222;-79
2022/01/07 00:37:13;;;;;;;4.53;3.07;;;3.70;99.90;;;;;;5055179;28;20209;-81
2022/01/07 00:39:39;;;;;;;6.77;3.23;;;3.80;99.90;;;;;;5054863;28;20172;-81
2022/01/07 00:42:05;;;;;;;7.90;3.10;;;3.60;99.90;;;;;;5037897;28;20330;-80
2022/01/07 00:44:31;;;;;;;4.83;3.00;;;3.80;99.90;;;;;;5071540;28;20191;-79
2022/01/07 00:46:57;;;;;;;7.87;3.40;;;3.90;99.90;;;;;;5071313;28;20283;-79
2022/01/07 00:49:23;;;;;;;6.00;3.47;;;3.90;99.90;;;;;;5071566;28;20185;-81
2022/01/07 00:51:50;;;;;;;6.73;3.43;;;3.90;99.90;;;;;;5071163;28;20859;-81
2022/01/07 00:54:16;;;;;;;3.83;2.87;;;3.50;99.90;;;;;;5071461;28;20583;-79
2022/01/07 00:56:43;;;;;;;7.57;3.13;;;3.10;99.90;;;;;;5054758;28;20515;-79
2022/01/07 00:59:09;;;;;;;5.07;3.40;;;3.10;99.90;;;;;;5071436;28;20199;-81
2022/01/07 01:01:35;;;;;;;6.37;3.60;;;3.30;99.90;;;;;;5073485;28;20196;-79
2022/01/07 01:04:03;;;;;;;7.90;3.10;;;3.40;99.90;;;;;;5071169;28;20242;-80
2022/01/07 01:06:29;;;;;;;6.23;3.33;;;3.30;99.90;;;;;;5053392;28;20204;-78
2022/01/07 01:08:55;;;;;;;5.53;3.30;;;3.50;99.90;;;;;;5072379;28;20650;-79
2022/01/07 01:11:21;;;;;;;5.67;3.40;;;3.50;99.90;;;;;;5038033;28;20200;-82
2022/01/07 01:13:47;;;;;;;6.03;3.07;;;3.50;99.90;;;;;;5054057;28;20768;-82
2022/01/07 01:16:13;;;;;;;7.27;3.87;;;3.70;99.90;;;;;;5070406;28;20643;-82
2022/01/07 01:18:40;;;;;;;3.97;2.97;;;3.80;99.90;;;;;;5072165;28;20196;-81
2022/01/07 01:21:06;;;;;;;4.10;2.83;;;3.80;99.90;;;;;;5054040;28;20218;-79
2022/01/07 01:23:32;;;;;;;5.00;3.20;;;3.70;99.90;;;;;;5087202;28;20200;-79
2022/01/07 01:25:58;;;;;;;6.40;3.33;;;3.70;99.90;;;;;;5053769;28;20196;-80
2022/01/07 01:28:24;;;;;;;5.33;2.93;;;3.80;99.90;;;;;;5071848;28;20232;-81
2022/01/07 01:30:50;;;;;;;6.90;3.30;;;3.80;99.90;;;;;;5071132;28;20199;-79
2022/01/07 01:33:17;;;;;;;5.40;3.00;;;3.60;99.90;;;;;;5071708;28;20208;-81
2022/01/07 01:35:42;;;;;;;7.20;3.37;;;3.50;99.90;;;;;;5071130;28;20208;-80
2022/01/07 01:38:08;;;;;;;5.10;3.17;;;3.70;99.90;;;;;;5054199;28;20250;-79
2022/01/07 01:40:35;;;;;;;7.80;3.43;;;3.80;99.90;;;;;;5037271;28;20200;-78
2022/01/07 01:43:03;;;;;;;6.00;3.27;;;3.70;99.90;;;;;;5070903;28;20192;-79
2022/01/07 01:45:29;;;;;;;4.10;3.07;;;3.80;99.90;;;;;;5070832;28;20227;-78
2022/01/07 01:47:56;;;;;;;5.97;3.37;;;3.80;99.90;;;;;;5070329;28;20200;-79
2022/01/07 01:50:23;;;;;;;8.33;3.30;;;3.80;99.90;;;;;;5071989;28;20210;-80
2022/01/07 01:52:55;;;;;;;5.17;2.90;;;3.60;99.90;;;;;;5053510;28;20273;-81
2022/01/07 01:55:24;;;;;;;4.83;3.00;;;3.70;99.90;;;;;;5069939;28;20200;-80
2022/01/07 01:57:52;;;;;;;5.83;3.30;;;3.80;99.90;;;;;;5037686;28;20204;-81
2022/01/07 02:00:21;;;;;;;5.77;3.30;;;3.70;99.90;;;;;;5072077;28;20616;-80
2022/01/07 02:02:47;;;;;;;4.73;2.93;;;3.80;99.90;;;;;;5071806;28;20211;-78
2022/01/07 02:05:13;;;;;;;8.50;3.60;;;3.80;99.90;;;;;;5053530;28;20184;-81
2022/01/07 02:07:40;;;;;;;6.57;3.50;;;3.80;99.90;;;;;;5069956;28;20560;-79
2022/01/07 02:10:09;;;;;;;6.97;3.40;;;3.70;99.90;;;;;;5053709;28;20529;-81
2022/01/07 02:12:36;;;;;;;7.17;3.33;;;3.70;99.90;;;;;;5070960;28;20579;-80
2022/01/07 02:15:03;;;;;;;6.70;3.40;;;3.70;99.90;;;;;;5077406;28;20204;-81
2022/01/07 02:17:29;;;;;;;5.30;3.27;;;3.50;99.90;;;;;;5091890;28;20506;-79
2022/01/07 02:19:56;;;;;;;6.20;3.10;;;3.50;99.90;;;;;;5090580;28;20202;-79
2022/01/07 02:22:25;;;;;;;7.67;3.53;;;3.70;99.90;;;;;;5073442;28;20286;-79
2022/01/07 02:24:53;;;;;;;7.57;3.70;;;3.70;99.90;;;;;;5077429;28;20212;-80
2022/01/07 02:27:20;;;;;;;7.30;3.50;;;2.90;99.90;;;;;;5071275;28;20201;-79
2022/01/07 02:29:48;;;;;;;6.80;3.27;;;2.90;99.90;;;;;;5062574;28;20224;-79
2022/01/07 02:32:16;;;;;;;7.70;3.57;;;2.60;99.90;;;;;;5069843;28;20679;-79
2022/01/07 02:34:42;;;;;;;6.70;3.57;;;2.20;99.90;;;;;;5069917;28;20223;-78
2022/01/07 02:37:09;;;;;;;7.53;3.77;;;2.20;99.90;;;;;;5069961;28;20200;-80
2022/01/07 02:39:35;;;;;;;6.60;4.07;;;2.40;99.90;;;;;;5071277;28;20647;-81
2022/01/07 02:42:00;;;;;;;6.73;3.33;;;2.70;99.90;;;;;;5036430;28;20208;-81
2022/01/07 02:44:27;;;;;;;6.03;3.50;;;3.00;99.90;;;;;;5072070;28;20196;-79
2022/01/07 02:46:54;;;;;;;5.63;3.10;;;3.00;99.90;;;;;;5056669;28;20200;-78
2022/01/07 02:49:20;;;;;;;6.10;3.20;;;3.00;99.90;;;;;;5074238;28;20203;-80
2022/01/07 02:51:46;;;;;;;7.13;3.37;;;3.00;99.90;;;;;;5073794;28;20249;-79
2022/01/07 02:54:13;;;;;;;4.33;3.23;;;3.10;99.90;;;;;;5073737;28;20235;-79
2022/01/07 02:56:39;;;;;;;4.60;2.87;;;3.00;99.90;;;;;;5073399;28;20619;-79
2022/01/07 02:59:06;;;;;;;5.43;3.03;;;3.30;99.90;;;;;;5075201;28;20283;-80
2022/01/07 03:01:32;;;;;;;3.67;2.80;;;2.90;99.90;;;;;;5074947;28;20173;-79
2022/01/07 03:03:58;;;;;;;6.60;2.93;;;2.80;99.90;;;;;;5056326;28;20307;-81
2022/01/07 03:06:24;;;;;;;4.03;3.00;;;2.50;99.90;;;;;;5074804;28;20196;-79
2022/01/07 03:08:51;;;;;;;7.03;3.47;;;2.40;99.90;;;;;;5039839;28;20211;-80
2022/01/07 03:11:18;;;;;;;6.60;3.00;;;2.50;99.90;;;;;;5056768;28;20672;-81
2022/01/07 03:13:44;;;;;;;6.17;3.77;;;2.60;99.90;;;;;;5040198;28;20236;-80
2022/01/07 03:16:11;;;;;;;5.10;3.10;;;2.70;99.90;;;;;;5073211;28;20519;-80
2022/01/07 03:18:37;;;;;;;8.40;3.43;;;2.60;99.90;;;;;;5073340;28;20204;-80
2022/01/07 03:21:04;;;;;;;6.93;3.60;;;2.90;99.90;;;;;;5056323;28;20660;-80
2022/01/07 03:23:30;;;;;;;7.17;3.10;;;2.80;99.90;;;;;;5073027;28;20568;-81
2022/01/07 03:25:56;;;;;;;5.70;3.40;;;3.30;99.90;;;;;;5072865;28;20196;-80
2022/01/07 03:28:22;;;;;;;6.27;2.83;;;3.50;99.90;;;;;;5072902;28;20283;-79
2022/01/07 03:30:48;;;;;;;8.43;3.23;;;3.60;99.90;;;;;;5072817;28;20578;-80
2022/01/07 03:33:15;;;;;;;4.37;2.70;;;3.70;99.90;;;;;;5073785;28;20215;-81
2022/01/07 03:35:41;;;;;;;4.77;3.13;;;3.60;99.90;;;;;;5072875;28;20679;-79
2022/01/07 03:38:08;;;;;;;6.23;3.03;;;3.40;99.90;;;;;;5056212;28;20200;-78
2022/01/07 03:40:34;;;;;;;4.73;3.17;;;3.60;99.90;;;;;;5055753;28;20197;-79
2022/01/07 03:43:01;;;;;;;9.37;3.03;;;3.60;99.90;;;;;;5074215;28;20214;-79
2022/01/07 03:45:27;;;;;;;5.23;2.83;;;3.50;99.90;;;;;;5072551;28;20184;-81
2022/01/07 03:47:53;;;;;;;5.47;3.07;;;3.50;99.90;;;;;;5072728;28;20250;-78
2022/01/07 03:50:23;;;;;;;5.40;2.63;;;3.60;99.90;;;;;;5073048;28;20188;-79
2022/01/07 03:52:50;;;;;;;6.57;3.43;;;3.70;99.90;;;;;;5040015;28;20239;-82
2022/01/07 03:55:18;;;;;;;6.63;3.10;;;3.70;99.90;;;;;;5072014;28;20286;-79
2022/01/07 03:57:44;;;;;;;8.63;3.00;;;3.60;99.90;;;;;;5055623;28;20183;-80
2022/01/07 04:00:17;;;;;;;5.53;2.50;;;3.70;99.90;;;;;;5072436;28;20309;-77
2022/01/07 04:02:44;;;;;;;4.20;2.60;;;3.60;99.90;;;;;;5072440;28;20682;-79
2022/01/07 04:05:10;;;;;;;4.10;2.53;;;3.50;99.90;;;;;;5072147;28;20245;-81
2022/01/07 04:07:36;;;;;;;3.03;2.37;;;3.30;99.90;;;;;;5071812;28;20227;-79
2022/01/07 04:10:04;;;;;;;3.93;2.77;;;3.30;99.90;;;;;;5055569;28;20234;-81
2022/01/07 04:12:29;;;;;;;5.20;2.53;;;3.50;99.90;;;;;;5055321;28;20610;-81
2022/01/07 04:15:16;;;;;;;5.17;2.83;;;3.30;99.90;;;;;;5071703;28;20220;-79
2022/01/07 04:17:46;;;;;;;4.20;2.53;;;3.30;99.90;;;;;;5071920;28;20270;-80
2022/01/07 04:20:16;;;;;;;5.50;2.90;;;3.50;99.90;;;;;;5073164;28;20224;-79
2022/01/07 04:22:44;;;;;;;5.00;2.40;;;3.60;99.90;;;;;;5055362;28;20192;-81
2022/01/07 04:25:16;;;;;;;4.57;2.67;;;3.60;99.90;;;;;;5071744;28;20188;-81
2022/01/07 04:27:43;;;;;;;4.93;2.30;;;3.50;99.90;;;;;;5054740;28;20211;-78
2022/01/07 04:30:09;;;;;;;6.27;2.57;;;3.40;99.90;;;;;;5055016;28;20192;-79
2022/01/07 04:32:37;;;;;;;4.70;2.53;;;3.40;99.90;;;;;;5054946;28;20236;-78
2022/01/07 04:35:03;;;;;;;3.93;2.70;;;3.50;99.90;;;;;;5054732;28;20208;-78
2022/01/07 04:37:29;;;;;;;4.60;2.63;;;3.50;99.90;;;;;;5054568;28;20193;-77
2022/01/07 04:39:56;;;;;;;5.43;2.73;;;3.60;99.90;;;;;;5072541;28;20896;-79
2022/01/07 04:42:22;;;;;;;5.90;3.00;;;3.70;99.90;;;;;;5054745;28;20203;-80
2022/01/07 04:44:48;;;;;;;3.90;2.53;;;3.60;99.90;;;;;;5054732;28;20193;-79
2022/01/07 04:47:14;;;;;;;9.13;3.10;;;3.50;99.90;;;;;;5054419;28;20223;-81
2022/01/07 04:49:39;;;;;;;4.17;2.83;;;3.70;99.90;;;;;;5038534;28;20277;-80
2022/01/07 04:52:06;;;;;;;4.87;3.40;;;3.50;99.90;;;;;;5055418;28;20234;-78
2022/01/07 04:54:32;;;;;;;6.87;3.40;;;3.50;99.90;;;;;;5071078;28;20684;-81
2022/01/07 04:56:58;;;;;;;6.47;3.43;;;3.50;99.90;;;;;;5037862;28;20637;-80
2022/01/07 04:59:25;;;;;;;6.03;3.57;;;3.50;99.90;;;;;;5070837;28;20189;-81
2022/01/07 05:01:50;;;;;;;5.53;3.23;;;3.50;99.90;;;;;;5070846;28;20196;-79
2022/01/07 05:04:16;;;;;;;4.90;3.60;;;3.50;99.90;;;;;;5070902;28;20199;-80
2022/01/07 05:06:45;;;;;;;5.00;3.30;;;3.30;99.90;;;;;;5070470;28;20672;-80
2022/01/07 05:09:18;;;;;;;5.77;3.37;;;3.10;99.90;;;;;;5053973;28;20621;-78
2022/01/07 05:11:45;;;;;;;6.23;3.57;;;3.10;99.90;;;;;;5054544;28;20261;-80
2022/01/07 05:14:13;;;;;;;4.63;3.10;;;3.10;99.90;;;;;;5036937;28;20306;-79
2022/01/07 05:16:39;;;;;;;4.73;3.30;;;3.40;99.90;;;;;;5071298;28;20200;-80
2022/01/07 05:19:05;;;;;;;6.73;4.30;;;3.50;99.90;;;;;;5053503;28;20277;-81
2022/01/07 05:21:31;;;;;;;7.27;3.57;;;3.20;99.90;;;;;;5071891;28;20218;-79
2022/01/07 05:23:57;;;;;;;5.60;3.83;;;3.30;99.90;;;;;;5054161;28;20196;-78
2022/01/07 05:26:23;;;;;;;6.07;3.93;;;3.30;99.90;;;;;;5071837;28;20345;-79
2022/01/07 05:28:50;;;;;;;5.57;3.33;;;3.40;99.90;;;;;;5070501;28;20252;-79
2022/01/07 05:31:18;;;;;;;6.50;3.70;;;3.40;99.90;;;;;;5053260;28;20204;-78
2022/01/07 05:33:44;;;;;;;6.00;3.27;;;3.30;99.90;;;;;;5070159;28;20216;-80
2022/01/07 05:36:09;;;;;;;6.03;3.40;;;3.30;99.90;;;;;;5070308;28;20215;-78
2022/01/07 05:38:39;;;;;;;6.13;3.67;;;3.10;99.90;;;;;;5070259;28;20204;-81
2022/01/07 05:41:05;;;;;;;7.47;3.67;;;3.00;99.90;;;;;;5071806;28;20196;-79
2022/01/07 05:43:31;;;;;;;5.70;3.43;;;3.20;99.90;;;;;;5070088;28;20184;-79
2022/01/07 05:45:57;;;;;;;6.60;3.73;;;3.10;99.90;;;;;;5053439;28;20204;-81
2022/01/07 05:48:23;;;;;;;5.60;3.50;;;3.20;99.90;;;;;;5053479;28;20200;-79
2022/01/07 05:50:49;;;;;;;6.97;3.60;;;3.30;99.90;;;;;;5053155;28;20250;-79
2022/01/07 05:53:15;;;;;;;7.73;3.67;;;3.20;99.90;;;;;;5070137;28;20288;-80
2022/01/07 05:55:41;;;;;;;6.80;4.00;;;3.30;99.90;;;;;;5071263;28;20703;-81
2022/01/07 05:58:07;;;;;;;7.17;3.80;;;3.40;99.90;;;;;;5071210;28;20188;-79
2022/01/07 06:00:33;;;;;;;4.83;3.17;;;3.10;99.90;;;;;;5070806;28;20239;-80
2022/01/07 06:02:58;;;;;;;7.63;3.97;;;3.10;99.90;;;;;;5071414;28;20703;-80
2022/01/07 06:05:24;;;;;;;6.27;3.90;;;3.30;99.90;;;;;;5052748;28;20201;-81
2022/01/07 06:07:50;;;;;;;7.20;3.63;;;3.70;99.90;;;;;;5071346;28;20311;-77
2022/01/07 06:10:16;;;;;;;10.53;3.63;;;3.50;99.90;;;;;;5068620;28;20232;-79
2022/01/07 06:12:46;;;;;;;5.57;4.00;;;3.60;99.90;;;;;;5085032;28;20243;-79
2022/01/07 06:15:12;;;;;;;9.00;3.43;;;3.40;99.90;;;;;;5067467;28;20243;-78
2022/01/07 06:17:38;;;;;;;7.37;3.90;;;3.40;99.90;;;;;;5068839;28;20544;-78
2022/01/07 06:20:06;;;;;;;6.33;3.97;;;3.50;99.90;;;;;;5069443;28;20196;-78
2022/01/07 06:22:34;;;;;;;7.07;4.20;;;3.30;99.90;;;;;;5073215;28;20208;-78
2022/01/07 06:25:04;;;;;;;7.90;4.13;;;3.40;99.90;;;;;;5055971;28;20215;-77
2022/01/07 06:27:30;;;;;;;7.57;4.37;;;3.50;99.90;;;;;;5073635;28;20211;-80
2022/01/07 06:29:57;;;;;;;7.10;3.87;;;3.40;99.90;;;;;;5055228;28;20204;-79
2022/01/07 06:32:24;;;;;;;7.47;3.93;;;3.50;99.90;;;;;;5073154;28;20204;-79
2022/01/07 06:34:51;;;;;;;6.13;4.10;;;3.30;99.90;;;;;;5073111;28;20200;-80
2022/01/07 06:37:17;;;;;;;9.63;4.23;;;3.40;99.90;;;;;;5071704;28;20211;-78
2022/01/07 06:39:42;;;;;;;8.30;4.37;;;3.50;99.90;;;;;;5074129;28;20667;-80
2022/01/07 06:42:09;;;;;;;5.73;3.80;;;3.60;99.90;;;;;;5056169;28;20189;-78
2022/01/07 06:44:36;;;;;;;6.60;3.97;;;3.50;99.90;;;;;;5040037;28;20215;-79
2022/01/07 06:47:03;;;;;;;10.40;4.57;;;3.60;99.90;;;;;;5072257;28;20176;-77
2022/01/07 06:49:29;;;;;;;6.90;4.07;;;3.70;99.90;;;;;;5056053;28;20200;-78
2022/01/07 06:51:55;;;;;;;7.20;3.80;;;3.60;99.90;;;;;;5056313;28;20681;-78
2022/01/07 06:54:21;;;;;;;5.60;3.57;;;3.50;99.90;;;;;;5073068;28;20235;-77
2022/01/07 06:56:46;;;;;;;5.33;3.50;;;3.10;99.90;;;;;;5074172;28;20258;-78
2022/01/07 06:59:13;;;;;;;6.13;3.73;;;3.20;99.90;;;;;;5072645;28;20726;-77
2022/01/07 07:01:43;;;;;;;6.10;4.03;;;3.10;99.90;;;;;;5056345;28;20204;-77
2022/01/07 07:04:08;;;;;;;6.20;4.10;;;3.00;99.90;;;;;;5056172;28;20188;-79
2022/01/07 07:06:34;;;;;;;5.73;3.67;;;3.30;99.90;;;;;;5039808;28;20319;-78
2022/01/07 07:09:02;;;;;;;6.57;4.27;;;3.50;99.90;;;;;;5040394;28;20213;-77
2022/01/07 07:11:28;;;;;;;4.53;3.60;;;3.60;99.90;;;;;;5040071;28;20222;-79
2022/01/07 07:13:54;;;;;;;5.47;3.93;;;3.50;99.90;;;;;;5055646;28;20201;-79
2022/01/07 07:16:20;;;;;;;8.07;3.70;;;3.60;99.90;;;;;;5037494;28;20208;-77
2022/01/07 07:18:47;;;;;;;7.60;4.13;;;3.70;99.90;;;;;;5071829;28;20184;-78
2022/01/07 07:21:13;;;;;;;5.73;3.50;;;3.70;99.90;;;;;;5054291;28;20208;-79
2022/01/07 07:23:39;;;;;;;6.40;4.53;;;3.70;99.90;;;;;;5054152;28;20195;-78
2022/01/07 07:26:08;;;;;;;7.00;3.77;;;3.60;99.90;;;;;;5054301;28;20291;-78
2022/01/07 07:28:36;;;;;;;6.43;4.10;;;3.70;99.90;;;;;;5037531;28;20200;-79
2022/01/07 07:31:11;;;;;;;5.93;3.73;;;3.80;99.90;;;;;;5072127;28;20200;-80
2022/01/07 07:36:27;;;;;;;8.27;4.50;;;3.80;99.90;;;;;;5073018;28;20252;-78
2022/01/07 07:39:01;;;;;;;5.73;3.33;;;3.60;99.90;;;;;;5072216;28;20291;-77
2022/01/07 07:41:28;;;;;;;6.33;4.20;;;3.50;99.90;;;;;;5071910;28;20294;-79
2022/01/07 07:43:56;;;;;;;4.83;3.40;;;3.70;99.90;;;;;;5071769;28;20189;-80
2022/01/07 07:46:23;;;;;;;6.37;4.00;;;3.80;99.90;;;;;;5071663;28;20238;-80
2022/01/07 07:48:52;;;;;;;5.40;3.53;;;3.60;99.90;;;;;;5088698;28;20188;-81
2022/01/07 07:51:19;;;;;;;6.63;3.70;;;3.60;99.90;;;;;;5071007;28;20204;-80
2022/01/07 07:53:45;;;;;;;6.47;3.70;;;3.70;99.90;;;;;;5071423;28;20266;-81
2022/01/07 07:56:15;;;;;;;5.87;3.63;;;3.60;99.90;;;;;;5070726;28;20327;-80
2022/01/07 07:58:42;;;;;;;4.03;3.00;;;3.30;99.90;;;;;;5052509;28;20643;-80
2022/01/07 08:01:12;;;;;;;6.23;3.77;;;3.40;99.90;;;;;;5051569;28;20201;-80
2022/01/07 08:03:41;;;;;;;5.70;3.47;;;3.50;99.90;;;;;;5066757;28;20201;-81
2022/01/07 08:06:07;;;;;;;6.23;4.13;;;3.70;99.90;;;;;;5086744;28;20200;-81
2022/01/07 08:08:34;;;;;;;4.83;3.50;;;3.70;99.90;;;;;;5073408;28;20279;-82
2022/01/07 08:11:03;;;;;;;8.80;4.03;;;3.50;99.90;;;;;;5072414;28;20196;-79
2022/01/07 08:15:57;;;;;;;7.17;3.60;;;3.30;99.90;;;;;;5073432;28;20763;-80
2022/01/07 08:16:16;;;;;;;5.97;3.53;;;3.20;99.90;;;;;;5057278;28;20216;-81
2022/01/07 08:18:42;;;;;;;5.20;3.87;;;3.50;99.90;;;;;;5054911;28;20742;-80
2022/01/07 08:21:09;;;;;;;6.40;4.10;;;3.60;99.90;;;;;;5067087;28;20186;-79
2022/01/07 08:23:38;;;;;;;5.53;3.63;;;3.60;99.90;;;;;;5084495;28;20224;-81
2022/01/07 08:26:08;;;;;;;7.30;3.90;;;3.70;99.90;;;;;;5068846;28;20683;-80
2022/01/07 08:28:43;;;;;;;5.70;3.43;;;3.40;99.90;;;;;;5070509;28;20706;-81
2022/01/07 08:36:27;;;;;;;7.60;3.80;;;3.70;99.90;;;;;;5070279;28;20295;-81
2022/01/07 08:38:54;;;;;;;5.37;3.60;;;3.50;99.90;;;;;;5072051;28;20207;-80
2022/01/07 08:41:22;;;;;;;6.60;4.20;;;3.80;99.90;;;;;;5074298;28;20252;-80
2022/01/07 08:43:51;;;;;;;6.17;3.50;;;3.90;99.90;;;;;;5056979;28;20205;-79
2022/01/07 08:46:18;;;;;;;9.27;3.93;;;4.00;99.90;;;;;;5071801;28;20554;-79
2022/01/07 08:48:44;;;;;;;7.57;4.00;;;4.00;99.90;;;;;;5054044;28;20215;-80
2022/01/07 08:51:10;;;;;;;4.97;3.70;;;4.10;99.90;;;;;;5071017;28;20659;-80
2022/01/07 08:53:36;;;;;;;7.00;3.77;;;4.10;99.90;;;;;;5054123;28;20690;-79
2022/01/07 08:56:03;;;;;;;5.97;3.43;;;4.10;99.90;;;;;;5037418;28;20180;-81
2022/01/07 08:58:29;;;;;;;5.17;3.53;;;4.00;99.90;;;;;;5087554;28;20216;-80
2022/01/07 09:00:56;;;;;;;7.30;3.90;;;3.80;99.90;;;;;;5056861;28;20200;-83
2022/01/07 09:03:23;;;;;;;8.80;4.27;;;3.80;99.90;;;;;;5044563;28;20263;-81
2022/01/07 09:05:49;;;;;;;8.33;3.97;;;3.80;99.90;;;;;;5052298;28;20820;-78
2022/01/07 09:08:15;;;;;;;7.60;3.87;;;4.00;99.90;;;;;;5068751;28;20263;-79
2022/01/07 09:10:42;;;;;;;8.33;5.10;;;4.20;99.90;;;;;;5083898;28;20180;-81
2022/01/07 09:13:09;;;;;;;4.73;3.40;;;4.40;99.90;;;;;;5034201;28;20306;-80
2022/01/07 09:15:35;;;;;;;5.67;3.47;;;4.30;99.90;;;;;;5084067;28;20287;-78
2022/01/07 09:18:09;;;;;;;4.27;3.20;;;5.00;99.90;;;;;;5068270;28;20204;-80
2022/01/07 09:20:37;;;;;;;4.17;3.03;;;4.30;99.90;;;;;;5070096;28;20261;-81
2022/01/07 09:23:08;;;;;;;5.57;3.47;;;4.50;99.90;;;;;;5070290;28;20211;-81
2022/01/07 09:25:35;;;;;;;6.50;3.27;;;4.30;99.90;;;;;;5069538;28;20196;-78
2022/01/07 09:28:05;;;;;;;4.43;3.43;;;4.30;99.90;;;;;;5069306;28;20200;-80
2022/01/07 09:30:32;;;;;;;6.23;3.30;;;4.30;99.90;;;;;;5085152;28;20210;-79
2022/01/07 09:32:58;;;;;;;4.57;3.20;;;4.20;99.90;;;;;;5052405;28;20212;-80
2022/01/07 09:35:24;;;;;;;7.33;4.43;;;4.40;99.90;;;;;;5052102;28;20238;-78
2022/01/07 09:37:50;;;;;;;7.10;4.43;;;4.40;99.90;;;;;;5067147;28;20204;-80
2022/01/07 09:40:17;;;;;;;7.80;4.30;;;4.50;99.90;;;;;;5047719;28;20220;-79
2022/01/07 09:42:58;;;;;;;6.47;4.23;;;4.60;99.90;;;;;;5045281;28;20467;-78
2022/01/07 09:45:25;;;;;;;6.07;4.47;;;4.70;99.90;;;;;;5065464;28;20239;-78
2022/01/07 09:47:53;;;;;;;6.57;3.50;;;4.70;99.90;;;;;;5068398;28;20729;-79
2022/01/07 09:50:21;;;;;;;5.13;2.63;;;4.60;99.90;;;;;;5069560;28;20204;-78
2022/01/07 09:52:48;;;;;;;10.13;3.50;;;4.50;99.90;;;;;;5051691;28;20694;-78
2022/01/07 09:55:14;;;;;;;4.60;3.20;;;4.40;99.90;;;;;;5052378;28;20792;-80
2022/01/07 09:57:40;;;;;;;4.70;2.87;;;4.50;99.90;;;;;;5052189;28;20634;-79
2022/01/07 10:00:08;;;;;;;7.13;3.53;;;4.50;99.90;;;;;;5068779;28;20223;-80
2022/01/07 10:02:34;;;;;;;6.60;3.20;;;4.70;99.90;;;;;;5051756;28;20949;-81
2022/01/07 10:05:16;;;;;;;5.90;3.30;;;4.80;99.90;;;;;;5067430;28;20219;-79
2022/01/07 10:07:42;;;;;;;5.87;3.50;;;4.90;99.90;;;;;;5069561;28;20204;-79
2022/01/07 10:10:10;;;;;;;3.80;3.00;;;5.00;99.90;;;;;;5051603;28;20204;-80
2022/01/07 10:13:00;;;;;;;4.83;3.50;;;4.90;99.90;;;;;;5068363;28;20299;-80
2022/01/07 10:15:36;;;;;;;6.73;3.27;;;5.00;99.90;;;;;;5031404;28;20278;-79
2022/01/07 10:18:11;;;;;;;4.73;2.77;;;4.60;99.90;;;;;;5049302;28;20247;-79
2022/01/07 10:20:42;;;;;;;4.37;2.80;;;4.60;99.90;;;;;;5069274;28;20203;-80
2022/01/07 10:23:09;;;;;;;6.17;3.13;;;4.80;99.90;;;;;;5059707;28;20216;-80
2022/01/07 10:25:37;;;;;;;7.23;3.47;;;4.90;99.90;;;;;;5052135;28;20210;-78
2022/01/07 10:28:12;;;;;;;14.53;7.77;;;5.00;99.90;;;;;;5067831;28;20871;-78
2022/01/07 10:30:54;;;;;;;5.47;3.33;;;4.90;99.90;;;;;;5033242;28;20196;-80
2022/01/07 10:33:21;;;;;;;3.97;2.80;;;5.00;99.90;;;;;;5059806;28;20219;-79
2022/01/07 10:35:53;;;;;;;6.40;3.63;;;4.90;99.90;;;;;;5065853;28;20731;-79
2022/01/07 10:38:27;;;;;;;4.80;2.93;;;4.90;99.90;;;;;;5068944;28;20208;-79
2022/01/07 10:40:59;;;;;;;4.80;2.67;;;4.90;99.90;;;;;;5051012;28;20745;-79
2022/01/07 10:43:32;;;;;;;5.17;3.50;;;4.80;99.90;;;;;;5068429;28;20291;-79
2022/01/07 10:46:01;;;;;;;5.13;3.40;;;4.90;99.90;;;;;;5075593;28;20203;-78
2022/01/07 10:48:47;;;;;;;14.30;8.57;;;5.00;99.90;;;;;;5066205;28;20299;-78
2022/01/07 10:51:19;;;;;;;9.03;5.30;;;4.70;99.90;;;;;;5067405;28;20200;-79
2022/01/07 10:53:52;;;;;;;7.17;3.93;;;4.60;99.90;;;;;;5067226;28;20209;-81
2022/01/07 10:56:38;;;;;;;6.10;3.70;;;4.60;99.90;;;;;;5051529;28;20212;-77
2022/01/07 10:59:06;;;;;;;7.00;3.80;;;4.60;99.90;;;;;;5054478;28;20322;-77
2022/01/07 11:01:39;;;;;;;5.70;3.67;;;4.80;99.90;;;;;;5067446;28;20200;-79
2022/01/07 11:04:08;;;;;;;6.10;3.70;;;4.80;99.90;;;;;;5067437;28;20196;-78
2022/01/07 11:06:35;;;;;;;6.17;3.67;;;4.70;99.90;;;;;;5053136;28;20246;-79
2022/01/07 11:09:03;;;;;;;5.67;3.67;;;4.60;99.90;;;;;;5087502;28;20200;-77
2022/01/07 11:11:30;;;;;;;8.97;3.60;;;4.70;99.90;;;;;;5029786;28;20207;-79
2022/01/07 11:14:06;;;;;;;7.07;3.90;;;4.80;99.90;;;;;;5070896;28;20649;-79
2022/01/07 11:16:32;;;;;;;5.40;3.27;;;4.60;99.90;;;;;;5070808;28;20212;-78
2022/01/07 11:18:59;;;;;;;6.33;3.70;;;4.70;99.90;;;;;;5071348;28;20187;-78
2022/01/07 11:21:25;;;;;;;9.77;3.87;;;4.70;99.90;;;;;;5037426;28;20216;-78
2022/01/07 11:23:51;;;;;;;7.40;3.87;;;4.60;99.90;;;;;;5070892;28;20632;-80
2022/01/07 11:26:17;;;;;;;6.10;3.73;;;4.50;99.90;;;;;;5086831;28;20686;-79
2022/01/07 11:29:02;;;;;;;5.13;3.53;;;4.60;99.90;;;;;;5071179;28;20220;-79
2022/01/07 11:31:29;;;;;;;4.90;3.33;;;4.70;99.90;;;;;;5072028;28;20708;-78
2022/01/07 11:34:19;;;;;;;7.80;4.60;;;4.70;99.90;;;;;;5072105;28;20266;-78
2022/01/07 11:36:48;;;;;;;5.83;3.43;;;4.70;99.90;;;;;;5070206;28;20204;-77
2022/01/07 11:39:14;;;;;;;6.33;3.40;;;4.50;99.90;;;;;;5071829;28;20184;-78
2022/01/07 11:41:55;;;;;;;6.37;3.67;;;4.70;99.90;;;;;;5053534;28;20283;-77
2022/01/07 11:44:27;;;;;;;6.57;4.17;;;4.80;99.90;;;;;;5070267;28;20196;-77
2022/01/07 11:47:13;;;;;;;8.17;4.50;;;5.00;99.90;;;;;;5068756;28;20261;-79
2022/01/07 11:49:39;;;;;;;8.77;4.47;;;5.00;99.90;;;;;;5065809;28;20220;-78
2022/01/07 11:52:32;;;;;;;7.40;3.77;;;5.00;99.90;;;;;;5085504;28;20208;-77
2022/01/07 11:55:17;;;;;;;6.63;3.83;;;5.00;99.90;;;;;;5062092;28;20299;-77
2022/01/07 11:57:48;;;;;;;7.30;4.23;;;5.00;99.90;;;;;;5071174;28;20607;-80
2022/01/07 12:00:14;;;;;;;8.87;4.43;;;5.10;99.90;;;;;;5069795;28;20242;-78
2022/01/07 12:03:00;;;;;;;6.73;4.10;;;5.00;99.90;;;;;;5069363;28;20240;-77
2022/01/07 12:05:30;;;;;;;6.37;3.43;;;5.20;99.90;;;;;;5071270;28;20257;-77
2022/01/07 12:07:56;;;;;;;9.07;3.60;;;5.10;99.90;;;;;;5070101;28;20756;-80
2022/01/07 12:10:22;;;;;;;5.13;3.23;;;5.00;99.90;;;;;;5068733;28;20238;-77
2022/01/07 12:12:47;;;;;;;5.13;3.90;;;5.20;99.90;;;;;;5056997;28;20571;-80
2022/01/07 12:15:13;;;;;;;6.80;3.90;;;5.20;99.90;;;;;;5069711;28;20660;-79
2022/01/07 12:17:41;;;;;;;6.10;3.27;;;5.10;99.90;;;;;;5084402;28;20204;-76
2022/01/07 12:20:35;;;;;;;5.47;3.50;;;5.20;99.90;;;;;;5036932;28;20196;-77
2022/01/07 12:23:01;;;;;;;5.67;3.03;;;5.00;99.90;;;;;;5053107;28;20572;-79
2022/01/07 12:25:27;;;;;;;4.80;3.07;;;5.10;99.90;;;;;;5069199;28;20197;-80
2022/01/07 12:28:01;;;;;;;4.03;2.73;;;5.10;99.90;;;;;;5069649;28;20212;-81
2022/01/07 12:30:28;;;;;;;5.43;3.33;;;5.00;99.90;;;;;;5069124;28;20675;-79
2022/01/07 12:32:58;;;;;;;6.57;3.53;;;4.80;99.90;;;;;;5052235;28;20222;-78
2022/01/07 12:35:30;;;;;;;7.73;3.90;;;4.90;99.90;;;;;;5055498;28;20197;-78
2022/01/07 12:37:55;;;;;;;4.57;2.93;;;5.20;99.90;;;;;;5071629;28;20220;-78
2022/01/07 12:40:21;;;;;;;6.20;3.10;;;5.40;99.90;;;;;;5069423;28;20659;-78
2022/01/07 12:42:47;;;;;;;10.03;3.40;;;5.20;99.90;;;;;;5069097;28;20208;-79
2022/01/07 12:45:21;;;;;;;6.27;2.97;;;5.00;99.90;;;;;;5069248;28;20204;-79
2022/01/07 12:47:47;;;;;;;5.70;2.97;;;5.20;99.90;;;;;;5070822;28;20296;-78
2022/01/07 12:50:13;;;;;;;4.60;3.10;;;5.40;99.90;;;;;;5050656;28;20276;-79
2022/01/07 12:52:41;;;;;;;4.23;2.90;;;5.30;99.90;;;;;;5069019;28;20192;-80
2022/01/07 12:55:18;;;;;;;4.60;2.80;;;5.30;99.90;;;;;;5068657;28;20575;-78
2022/01/07 12:57:59;;;;;;;5.77;2.70;;;5.50;99.90;;;;;;5068697;28;20235;-79
2022/01/07 13:00:26;;;;;;;4.97;2.70;;;5.30;99.90;;;;;;5070119;28;20211;-80
2022/01/07 13:02:58;;;;;;;5.77;2.83;;;5.30;99.90;;;;;;5052003;28;20196;-81
2022/01/07 13:05:34;;;;;;;4.93;2.87;;;5.60;99.90;;;;;;5070011;28;20600;-78
2022/01/07 13:08:06;;;;;;;3.53;2.50;;;5.80;99.90;;;;;;5084695;28;20215;-77
2022/01/07 13:10:35;;;;;;;11.07;5.33;;;5.60;99.90;;;;;;5069534;28;20196;-78